Time;durP1;ratioP1;P1;durP2;ratioP2;P2;SDS_P1;SDS_P2;PMS_P1;PMS_P2;Temp;Humidity;BMP_temperature;BMP_pressure;BME280_temperature;BME280_humidity;BME280_pressure;Samples;Min_cycle;Max_cycle;Signal;HPM_P1;HPM_P2
2022/06/29 00:00:18;;;;;;;11.25;9.15;;;19.30;83.50;;;18.16;100.00;95899.47;4944721;28;20106;-68
2022/06/29 00:02:44;;;;;;;12.60;10.80;;;19.20;83.80;;;18.13;100.00;95908.75;4945044;28;20451;-68
2022/06/29 00:05:12;;;;;;;12.98;9.82;;;19.20;83.80;;;18.11;100.00;95902.84;4939275;28;20038;-69
2022/06/29 00:07:38;;;;;;;12.13;10.40;;;19.10;84.00;;;18.10;100.00;95903.06;4943722;28;20046;-69
2022/06/29 00:10:04;;;;;;;12.88;9.85;;;19.10;83.80;;;18.09;100.00;95904.94;4944340;28;20429;-68
2022/06/29 00:12:30;;;;;;;11.70;10.50;;;19.20;83.80;;;18.05;100.00;95891.28;4963599;28;20522;-68
2022/06/29 00:14:56;;;;;;;13.07;10.35;;;19.10;83.70;;;18.03;100.00;95887.25;4950193;28;20050;-68
2022/06/29 00:17:22;;;;;;;13.10;9.90;;;19.10;83.80;;;18.01;100.00;95884.84;4967513;28;20035;-69
2022/06/29 00:19:48;;;;;;;10.73;9.60;;;19.10;83.70;;;17.99;100.00;95886.13;4951498;28;20034;-69
2022/06/29 00:22:14;;;;;;;13.23;9.98;;;19.10;83.70;;;17.96;100.00;95883.97;4944588;28;20190;-68
2022/06/29 00:24:39;;;;;;;13.48;10.10;;;19.10;83.60;;;17.95;100.00;95877.03;4966563;28;20483;-68
2022/06/29 00:27:05;;;;;;;11.88;10.25;;;19.10;83.50;;;17.93;100.00;95876.47;4951546;28;20507;-68
2022/06/29 00:29:31;;;;;;;12.60;10.10;;;19.00;83.30;;;17.89;100.00;95881.47;4946918;28;20042;-68
2022/06/29 00:31:57;;;;;;;11.90;10.40;;;19.00;83.30;;;17.85;100.00;95876.84;4949490;28;20406;-68
2022/06/29 00:34:23;;;;;;;12.75;10.40;;;19.00;83.40;;;17.81;100.00;95881.03;4948582;28;20070;-68
2022/06/29 00:36:48;;;;;;;10.35;9.25;;;18.90;83.50;;;17.77;100.00;95870.06;4950500;28;20125;-68
2022/06/29 00:39:14;;;;;;;16.92;9.85;;;18.80;83.60;;;17.75;100.00;95864.97;4918976;28;20097;-68
2022/06/29 00:41:41;;;;;;;10.63;9.10;;;18.90;83.60;;;17.73;100.00;95863.59;4948993;28;20043;-68
2022/06/29 00:44:10;;;;;;;11.43;10.20;;;18.80;83.60;;;17.70;100.00;95853.44;4947883;28;20065;-68
2022/06/29 00:46:41;;;;;;;12.18;10.18;;;18.70;83.70;;;17.67;100.00;95848.59;4928704;28;20034;-68
2022/06/29 00:49:07;;;;;;;10.45;9.30;;;18.70;83.80;;;17.64;100.00;95841.06;4947895;28;20411;-68
2022/06/29 00:51:33;;;;;;;13.30;9.80;;;18.70;83.90;;;17.62;100.00;95837.81;4949888;28;20046;-69
2022/06/29 00:53:59;;;;;;;14.23;11.05;;;18.70;83.80;;;17.57;100.00;95841.22;4936372;28;20066;-67
2022/06/29 00:56:25;;;;;;;11.57;10.40;;;18.70;84.00;;;17.56;100.00;95852.91;4931556;28;20046;-68
2022/06/29 00:58:53;;;;;;;12.70;10.32;;;18.60;84.10;;;17.54;100.00;95849.66;4951182;28;20055;-67
2022/06/29 01:01:19;;;;;;;12.48;10.95;;;18.60;84.10;;;17.51;100.00;95842.16;4950272;28;20038;-68
2022/06/29 01:03:45;;;;;;;12.07;10.80;;;18.60;84.10;;;17.49;100.00;95838.94;4967076;28;20031;-68
2022/06/29 01:06:11;;;;;;;10.88;9.73;;;18.60;84.30;;;17.48;100.00;95833.88;4932614;28;20082;-68
2022/06/29 01:08:37;;;;;;;13.27;9.52;;;18.60;84.40;;;17.50;100.00;95827.25;4943132;28;20026;-68
2022/06/29 01:11:03;;;;;;;14.73;9.65;;;18.70;84.50;;;17.52;100.00;95825.16;4947148;28;20030;-69
2022/06/29 01:13:28;;;;;;;10.52;9.52;;;18.70;84.50;;;17.53;100.00;95826.78;4947383;28;20387;-67
2022/06/29 01:15:54;;;;;;;12.10;9.35;;;18.70;84.60;;;17.56;100.00;95825.50;4926396;28;20043;-68
2022/06/29 01:18:20;;;;;;;11.65;9.88;;;18.70;84.70;;;17.59;100.00;95815.19;4945912;28;20389;-68
2022/06/29 01:20:46;;;;;;;13.23;10.85;;;18.80;84.70;;;17.60;100.00;95827.44;4946227;28;20043;-69
2022/06/29 01:23:12;;;;;;;15.85;11.63;;;18.70;84.90;;;17.64;100.00;95833.06;4966668;28;20063;-69
2022/06/29 01:25:38;;;;;;;18.52;13.15;;;18.80;85.00;;;17.65;100.00;95830.19;4962600;28;20039;-68
2022/06/29 01:28:04;;;;;;;14.63;11.63;;;18.80;85.10;;;17.68;100.00;95835.06;4933803;28;20081;-68
2022/06/29 01:30:30;;;;;;;13.60;12.23;;;18.90;85.10;;;17.70;100.00;95832.16;4948000;28;20042;-68
2022/06/29 01:32:56;;;;;;;13.68;11.85;;;18.90;85.10;;;17.73;100.00;95832.50;4947749;28;20581;-68
2022/06/29 01:35:23;;;;;;;13.93;11.82;;;19.00;85.00;;;17.74;100.00;95850.06;4929551;28;20050;-69
2022/06/29 01:37:48;;;;;;;15.82;12.75;;;19.00;85.10;;;17.78;100.00;95860.22;4949803;28;20030;-67
2022/06/29 01:40:14;;;;;;;15.65;12.02;;;19.00;85.10;;;17.77;100.00;95858.59;4948346;28;20457;-68
2022/06/29 01:42:40;;;;;;;14.73;12.05;;;18.90;85.00;;;17.77;100.00;95853.28;4944517;28;20049;-68
2022/06/29 01:45:07;;;;;;;18.65;12.25;;;18.90;85.10;;;17.77;100.00;95847.97;4946614;28;20278;-67
2022/06/29 01:47:32;;;;;;;13.45;12.05;;;19.00;85.20;;;17.78;100.00;95838.94;4946652;28;20027;-68
2022/06/29 01:49:58;;;;;;;16.55;12.75;;;19.00;85.10;;;17.79;100.00;95835.22;4944580;28;20054;-67
2022/06/29 01:52:24;;;;;;;14.80;12.18;;;19.00;85.20;;;17.79;100.00;95841.34;4933084;28;20082;-68
2022/06/29 01:54:49;;;;;;;16.23;12.93;;;19.00;85.20;;;17.81;100.00;95839.25;4958497;28;20545;-67
2022/06/29 01:57:15;;;;;;;13.75;12.23;;;19.00;85.30;;;17.85;100.00;95834.25;4965951;28;20058;-68
2022/06/29 01:59:41;;;;;;;15.13;13.57;;;19.10;85.30;;;17.87;100.00;95826.84;4948470;28;20145;-68
2022/06/29 02:02:07;;;;;;;14.57;13.07;;;19.10;85.10;;;17.87;100.00;95822.31;4944445;28;20098;-68
2022/06/29 02:04:33;;;;;;;14.70;13.20;;;19.10;85.10;;;17.92;100.00;95824.28;4964079;28;20062;-68
2022/06/29 02:06:59;;;;;;;14.13;12.68;;;19.20;85.10;;;17.94;100.00;95817.66;4932970;28;20148;-67
2022/06/29 02:09:25;;;;;;;16.85;14.50;;;19.20;85.00;;;17.95;100.00;95816.63;4948666;28;20407;-68
2022/06/29 02:11:51;;;;;;;16.98;14.30;;;19.20;85.00;;;17.96;100.00;95809.44;4965546;28;20732;-67
2022/06/29 02:14:16;;;;;;;14.93;13.52;;;19.20;84.90;;;17.98;100.00;95804.69;4947348;28;20165;-68
2022/06/29 02:16:42;;;;;;;15.98;14.38;;;19.30;85.00;;;18.00;100.00;95794.59;4944401;28;20499;-69
2022/06/29 02:19:08;;;;;;;17.00;15.30;;;19.20;84.80;;;18.00;100.00;95799.94;4949300;28;20047;-68
2022/06/29 02:21:33;;;;;;;16.85;15.15;;;19.20;84.90;;;18.01;100.00;95785.56;4917010;28;20038;-68
2022/06/29 02:23:59;;;;;;;16.65;15.00;;;19.20;85.00;;;17.99;100.00;95774.34;4951398;28;20031;-67
2022/06/29 02:26:25;;;;;;;16.33;14.82;;;19.20;85.00;;;17.96;100.00;95777.50;4933873;28;20034;-68
2022/06/29 02:28:51;;;;;;;15.40;13.77;;;19.20;85.10;;;17.98;100.00;95778.06;4947191;28;20503;-67
2022/06/29 02:36:45;;;;;;;27.80;24.85;;;19.10;85.30;;;17.91;100.00;95814.69;4948744;28;20054;-68
2022/06/29 02:39:11;;;;;;;17.80;15.38;;;19.10;85.50;;;17.93;100.00;95833.88;4946828;28;20031;-68
2022/06/29 02:41:36;;;;;;;18.77;13.85;;;19.10;85.30;;;17.91;100.00;95859.94;4963096;28;20166;-69
2022/06/29 02:44:02;;;;;;;22.98;18.83;;;19.10;85.40;;;17.90;100.00;95845.81;4946231;28;20089;-68
2022/06/29 02:46:28;;;;;;;23.52;19.85;;;19.10;85.50;;;17.92;100.00;95805.66;4946203;28;20031;-67
2022/06/29 02:48:54;;;;;;;23.38;15.15;;;19.10;85.30;;;17.94;100.00;95801.72;4942854;28;20035;-68
2022/06/29 02:51:19;;;;;;;21.92;17.92;;;19.10;85.40;;;17.96;100.00;95804.13;4944707;28;20650;-68
2022/06/29 02:53:45;;;;;;;37.03;28.05;;;19.20;85.50;;;17.99;100.00;95819.59;4949249;28;20057;-68
2022/06/29 02:56:11;;;;;;;19.10;16.30;;;19.20;85.50;;;17.98;100.00;95829.44;4951963;28;20055;-68
2022/06/29 02:58:37;;;;;;;23.02;18.75;;;19.10;85.60;;;17.99;100.00;95838.22;4965642;28;20166;-68
2022/06/29 03:01:02;;;;;;;28.95;22.85;;;19.20;85.50;;;17.99;100.00;95840.91;4968164;28;20126;-68
2022/06/29 03:03:28;;;;;;;25.85;21.70;;;19.20;85.50;;;18.00;100.00;95831.84;4951763;28;20074;-69
2022/06/29 03:05:54;;;;;;;42.20;34.05;;;19.20;85.50;;;18.02;100.00;95835.88;4966989;28;20145;-68
2022/06/29 03:08:19;;;;;;;28.70;22.55;;;19.30;85.40;;;18.04;100.00;95833.78;4948082;28;20043;-69
2022/06/29 03:10:45;;;;;;;20.45;17.77;;;19.30;85.40;;;18.05;100.00;95823.94;4934323;28;20043;-67
2022/06/29 03:13:11;;;;;;;20.90;17.55;;;19.30;85.30;;;18.06;100.00;95814.91;4949842;28;20420;-68
2022/06/29 03:15:37;;;;;;;21.15;15.32;;;19.30;85.30;;;18.09;100.00;95811.75;4968193;28;20038;-68
2022/06/29 03:18:02;;;;;;;43.05;34.47;;;19.40;85.20;;;18.10;100.00;95821.34;4969962;28;20038;-68
2022/06/29 03:20:28;;;;;;;28.45;25.48;;;19.40;85.30;;;18.10;100.00;95813.38;4935582;28;20126;-68
2022/06/29 03:22:54;;;;;;;23.35;18.75;;;19.30;85.10;;;18.11;100.00;95806.22;4951614;28;20039;-68
2022/06/29 03:25:19;;;;;;;18.30;16.02;;;19.40;85.20;;;18.11;100.00;95793.72;4951047;28;20054;-68
2022/06/29 03:27:45;;;;;;;17.60;15.80;;;19.40;85.30;;;18.12;100.00;95798.00;4952006;28;20090;-68
2022/06/29 03:30:11;;;;;;;20.08;14.82;;;19.40;85.30;;;18.13;100.00;95794.28;4952645;28;20039;-69
2022/06/29 03:32:37;;;;;;;19.75;16.17;;;19.50;85.40;;;18.15;100.00;95792.19;4963834;28;20030;-68
2022/06/29 03:35:05;;;;;;;37.33;30.85;;;19.50;85.10;;;18.16;100.00;95793.00;4946620;28;20063;-72
2022/06/29 03:37:30;;;;;;;30.30;26.70;;;19.50;85.30;;;18.17;100.00;95806.06;4951858;28;20055;-68
2022/06/29 03:39:56;;;;;;;19.83;15.45;;;19.50;85.50;;;18.18;100.00;95806.84;4951426;28;20069;-68
2022/06/29 03:42:22;;;;;;;14.10;10.95;;;19.50;85.30;;;18.19;100.00;95819.13;4963256;28;20089;-68
2022/06/29 03:44:48;;;;;;;15.55;13.80;;;19.50;85.40;;;18.20;100.00;95816.22;4944130;28;20118;-68
2022/06/29 03:47:14;;;;;;;20.08;13.93;;;19.50;85.20;;;18.21;100.00;95801.03;4935386;28;20101;-68
2022/06/29 03:49:39;;;;;;;18.70;13.68;;;19.50;85.20;;;18.23;100.00;95804.25;4945649;28;20519;-68
2022/06/29 03:52:05;;;;;;;16.25;14.52;;;19.50;85.20;;;18.21;100.00;95807.16;4950954;28;20046;-66
2022/06/29 03:54:31;;;;;;;17.85;14.40;;;19.50;85.40;;;18.19;100.00;95819.13;4949768;28;20089;-65
2022/06/29 03:56:57;;;;;;;16.58;14.10;;;19.40;85.50;;;18.17;100.00;95822.03;4949086;28;20046;-65
2022/06/29 03:59:23;;;;;;;16.77;14.23;;;19.40;85.60;;;18.18;100.00;95825.50;4936390;28;20081;-63
2022/06/29 04:01:49;;;;;;;14.90;13.18;;;19.40;85.30;;;18.16;100.00;95831.06;4956914;28;20562;-63
2022/06/29 04:04:15;;;;;;;19.75;14.60;;;19.40;85.00;;;18.17;100.00;95824.69;4965534;28;20035;-67
2022/06/29 04:06:41;;;;;;;17.55;13.65;;;19.50;85.00;;;18.18;100.00;95817.50;4936086;28;20031;-67
2022/06/29 04:09:07;;;;;;;20.80;14.93;;;19.50;85.00;;;18.18;100.00;95823.63;4935521;28;20031;-69
2022/06/29 04:14:21;;;;;;;17.58;15.63;;;19.40;85.20;;;18.14;100.00;95832.34;4952089;28;20049;-69
2022/06/29 04:16:47;;;;;;;20.10;15.68;;;19.40;85.30;;;18.13;100.00;95831.56;4923664;28;20039;-69
2022/06/29 04:19:13;;;;;;;19.95;15.57;;;19.40;85.20;;;18.16;100.00;95830.25;4953561;28;20037;-68
2022/06/29 04:21:38;;;;;;;19.73;16.85;;;19.40;85.40;;;18.14;100.00;95822.50;4950547;28;20042;-68
2022/06/29 04:24:05;;;;;;;20.20;17.50;;;19.40;85.30;;;18.16;100.00;95819.59;4956812;28;20074;-68
2022/06/29 04:26:30;;;;;;;20.10;17.15;;;19.40;85.40;;;18.16;100.00;95817.75;4936173;28;20115;-69
2022/06/29 04:28:56;;;;;;;19.55;16.70;;;19.50;85.30;;;18.19;100.00;95824.44;4935966;28;20039;-68
2022/06/29 04:31:22;;;;;;;19.50;16.15;;;19.50;85.40;;;18.19;100.00;95825.25;4949178;28;20173;-69
2022/06/29 04:33:48;;;;;;;22.23;17.88;;;19.50;85.40;;;18.19;100.00;95830.56;4934565;28;20043;-69
2022/06/29 04:36:13;;;;;;;20.35;18.08;;;19.50;85.20;;;18.20;100.00;95820.72;4936777;28;20026;-68
2022/06/29 04:38:39;;;;;;;20.15;17.35;;;19.50;85.00;;;18.22;100.00;95816.78;4963375;28;20110;-69
2022/06/29 04:41:05;;;;;;;21.23;17.42;;;19.50;85.10;;;18.25;100.00;95813.63;4956770;28;20402;-68
2022/06/29 04:43:30;;;;;;;20.35;18.25;;;19.60;84.70;;;18.29;100.00;95821.91;4965474;28;20062;-68
2022/06/29 04:48:41;;;;;;;20.35;17.10;;;19.60;84.60;;;18.32;100.00;95824.09;4966066;28;20533;-69
2022/06/29 04:51:07;;;;;;;24.42;21.92;;;19.60;84.60;;;18.33;100.00;95837.19;4967294;28;20058;-69
2022/06/29 04:53:33;;;;;;;31.85;28.60;;;19.60;84.60;;;18.33;100.00;95831.84;4967265;28;20442;-67
2022/06/29 04:55:59;;;;;;;22.48;20.17;;;19.70;84.70;;;18.35;100.00;95839.59;4952288;28;20098;-68
2022/06/29 04:58:25;;;;;;;32.45;25.67;;;19.60;84.70;;;18.38;100.00;95835.63;4964309;28;20101;-69
2022/06/29 05:00:50;;;;;;;20.23;18.08;;;19.70;84.70;;;18.37;100.00;95834.84;4952065;28;20122;-67
2022/06/29 05:03:16;;;;;;;18.75;16.98;;;19.60;84.50;;;18.34;100.00;95832.66;4965337;28;20114;-65
2022/06/29 05:05:42;;;;;;;17.45;15.43;;;19.60;84.60;;;18.32;100.00;95822.22;4947337;28;20035;-65
2022/06/29 05:08:07;;;;;;;16.63;14.98;;;19.60;84.70;;;18.31;100.00;95819.81;4943782;28;20038;-66
2022/06/29 05:10:33;;;;;;;17.35;15.60;;;19.50;84.50;;;18.30;100.00;95810.22;4985529;28;20035;-66
2022/06/29 05:12:59;;;;;;;16.85;14.90;;;19.60;84.50;;;18.32;100.00;95808.91;4950574;28;20049;-65
2022/06/29 05:15:25;;;;;;;16.52;14.82;;;19.60;84.40;;;18.35;100.00;95807.66;4950857;28;20051;-66
2022/06/29 05:17:51;;;;;;;14.90;13.50;;;19.70;84.40;;;18.37;100.00;95805.53;4950676;28;20094;-66
2022/06/29 05:20:19;;;;;;;15.60;12.60;;;19.80;84.10;;;18.41;100.00;95801.34;4946919;28;20054;-74
2022/06/29 05:22:44;;;;;;;13.32;12.13;;;19.80;83.80;;;18.45;100.00;95806.97;4949044;28;20046;-74
2022/06/29 05:25:10;;;;;;;15.60;11.35;;;19.90;83.70;;;18.49;100.00;95798.25;4934677;28;20035;-74
2022/06/29 05:27:36;;;;;;;13.38;11.35;;;20.00;83.30;;;18.53;100.00;95804.69;4947062;28;20097;-67
2022/06/29 05:30:02;;;;;;;13.80;11.98;;;20.10;83.10;;;18.59;100.00;95810.91;4966738;28;20050;-68
2022/06/29 05:32:27;;;;;;;12.65;11.07;;;20.10;83.10;;;18.65;100.00;95815.28;4946294;28;20101;-73
2022/06/29 05:34:53;;;;;;;13.82;12.35;;;20.10;82.60;;;18.68;100.00;95817.44;4933393;28;20508;-73
2022/06/29 05:37:19;;;;;;;14.02;12.63;;;20.20;82.50;;;18.71;100.00;95811.63;4947400;28;20039;-68
2022/06/29 05:39:44;;;;;;;13.55;12.15;;;20.20;82.70;;;18.77;100.00;95810.63;4965723;28;20097;-69
2022/06/29 05:42:13;;;;;;;13.77;11.95;;;20.30;82.90;;;18.82;100.00;95797.38;4949931;28;21129;-70
2022/06/29 05:44:40;;;;;;;12.50;11.20;;;20.50;82.20;;;18.87;100.00;95789.44;4963956;28;20042;-69
2022/06/29 05:47:07;;;;;;;10.95;9.50;;;20.50;81.90;;;18.92;100.00;95786.84;4965530;28;20034;-72
2022/06/29 05:49:34;;;;;;;9.77;8.35;;;20.50;81.90;;;19.02;100.00;95780.84;4952013;28;20026;-72
2022/06/29 05:51:59;;;;;;;10.65;8.18;;;20.70;81.80;;;19.10;100.00;95792.91;4951404;28;20039;-72
2022/06/29 05:54:25;;;;;;;10.57;8.20;;;20.70;80.90;;;19.16;100.00;95791.91;4950332;28;20035;-72
2022/06/29 05:56:51;;;;;;;12.88;8.77;;;20.70;80.80;;;19.19;100.00;95791.38;4950256;28;20101;-72
2022/06/29 05:59:17;;;;;;;9.70;8.60;;;20.70;80.70;;;19.21;100.00;95784.75;4946688;28;20058;-72
2022/06/29 06:01:43;;;;;;;14.30;8.15;;;20.70;80.90;;;19.24;100.00;95770.13;4946645;28;20083;-71
2022/06/29 06:04:08;;;;;;;10.75;7.95;;;20.70;81.10;;;19.27;100.00;95783.75;4966190;28;20173;-72
2022/06/29 06:06:34;;;;;;;12.35;7.40;;;20.70;81.10;;;19.29;100.00;95786.19;4953597;28;20093;-75
2022/06/29 06:09:00;;;;;;;10.32;6.97;;;20.70;80.80;;;19.35;100.00;95779.03;4934058;28;20046;-72
2022/06/29 06:11:26;;;;;;;11.05;6.78;;;20.90;81.00;;;19.39;100.00;95774.78;4934678;28;20035;-78
2022/06/29 06:13:52;;;;;;;9.10;6.70;;;20.90;80.60;;;19.41;100.00;95773.47;4961441;28;20137;-70
2022/06/29 06:16:17;;;;;;;8.65;6.85;;;20.80;79.90;;;19.42;100.00;95779.63;4951842;28;20031;-74
2022/06/29 06:18:43;;;;;;;8.25;6.43;;;20.80;80.10;;;19.44;100.00;95782.84;4932464;28;20027;-73
2022/06/29 06:21:09;;;;;;;8.23;6.40;;;20.80;79.80;;;19.44;100.00;95778.31;4948626;28;20117;-68
2022/06/29 06:23:34;;;;;;;8.13;7.15;;;20.80;79.40;;;19.42;100.00;95784.97;4946691;28;20039;-61
2022/06/29 06:26:00;;;;;;;9.68;6.80;;;20.70;79.60;;;19.41;100.00;95789.50;4958794;28;20039;-61
2022/06/29 06:28:26;;;;;;;8.10;6.70;;;20.70;79.50;;;19.43;100.00;95797.22;4943929;28;20118;-71
2022/06/29 06:30:52;;;;;;;8.98;7.00;;;20.80;79.60;;;19.44;100.00;95809.50;4962461;28;20112;-71
2022/06/29 06:33:18;;;;;;;10.20;7.70;;;20.80;78.90;;;19.43;100.00;95814.03;4954965;28;20039;-60
2022/06/29 06:35:43;;;;;;;8.98;7.32;;;20.70;78.50;;;19.44;100.00;95826.31;4947869;28;20086;-60
2022/06/29 06:38:09;;;;;;;10.48;7.63;;;20.80;78.80;;;19.43;100.00;95818.56;4968202;28;20183;-60
2022/06/29 06:43:19;;;;;;;10.43;8.43;;;20.90;78.00;;;19.48;100.00;95821.31;4940085;28;20086;-62
2022/06/29 06:45:46;;;;;;;10.02;7.65;;;20.90;77.80;;;19.49;100.00;95829.06;4942043;28;20035;-68
2022/06/29 06:48:11;;;;;;;11.57;7.55;;;20.90;78.00;;;19.52;100.00;95827.75;4961012;28;20035;-62
2022/06/29 06:50:37;;;;;;;10.07;7.78;;;20.90;78.40;;;19.53;100.00;95834.69;4955452;28;20050;-64
2022/06/29 06:53:03;;;;;;;11.90;7.70;;;20.90;78.00;;;19.52;100.00;95841.91;4985982;28;20042;-70
2022/06/29 06:55:29;;;;;;;10.98;8.38;;;20.90;77.80;;;19.54;100.00;95847.00;4948344;28;20058;-75
2022/06/29 06:57:55;;;;;;;9.30;7.72;;;20.90;77.50;;;19.54;100.00;95845.16;4963522;28;20057;-77
2022/06/29 07:00:21;;;;;;;9.18;7.38;;;20.90;78.20;;;19.57;100.00;95843.84;4952529;28;20035;-73
2022/06/29 07:02:46;;;;;;;9.82;8.85;;;21.00;78.50;;;19.58;100.00;95843.59;4934398;28;20569;-71
2022/06/29 07:05:12;;;;;;;9.90;8.48;;;21.00;77.30;;;19.61;100.00;95842.28;4948891;28;20066;-76
2022/06/29 07:07:39;;;;;;;8.75;7.50;;;21.10;77.30;;;19.67;100.00;95843.94;4930262;29;20443;-71
2022/06/29 07:10:05;;;;;;;10.02;8.20;;;21.30;77.00;;;19.72;100.00;95851.19;4948804;28;20032;-71
2022/06/29 07:12:31;;;;;;;11.25;9.48;;;21.30;76.50;;;19.75;100.00;95856.03;4931824;28;20061;-72
2022/06/29 07:14:57;;;;;;;12.77;8.75;;;21.20;76.20;;;19.77;100.00;95867.25;4962792;28;20067;-72
2022/06/29 07:17:22;;;;;;;11.15;9.00;;;21.20;76.30;;;19.76;100.00;95871.78;4950112;28;20039;-77
2022/06/29 07:19:48;;;;;;;11.63;9.20;;;21.20;76.10;;;19.72;100.00;95869.88;4931680;28;20095;-75
2022/06/29 07:22:14;;;;;;;12.70;9.70;;;21.00;76.10;;;19.64;100.00;95879.13;4933334;28;20499;-77
2022/06/29 07:24:40;;;;;;;11.15;9.35;;;20.90;76.60;;;19.68;100.00;95871.41;4948790;28;20500;-74
2022/06/29 07:27:05;;;;;;;12.65;8.25;;;21.10;76.90;;;19.70;100.00;95888.00;4949395;29;20050;-78
2022/06/29 07:29:31;;;;;;;11.85;8.95;;;21.20;76.90;;;19.71;100.00;95885.09;4941246;28;20114;-71
2022/06/29 07:31:57;;;;;;;8.90;7.97;;;21.10;75.50;;;19.71;100.00;95889.63;4957539;28;20119;-73
2022/06/29 07:34:22;;;;;;;9.63;8.00;;;21.10;75.80;;;19.71;100.00;95873.59;4933439;29;20082;-61
2022/06/29 07:36:48;;;;;;;9.23;7.63;;;21.20;76.40;;;19.74;100.00;95878.44;4934361;28;20043;-65
2022/06/29 07:39:14;;;;;;;10.43;7.32;;;21.20;76.40;;;19.77;100.00;95875.25;4946605;28;20507;-61
2022/06/29 07:41:41;;;;;;;9.52;7.68;;;21.20;76.10;;;19.76;100.00;95877.13;4932626;28;20078;-69
2022/06/29 07:44:07;;;;;;;8.45;7.63;;;21.20;75.90;;;19.78;100.00;95874.19;4961856;28;20411;-74
2022/06/29 07:46:32;;;;;;;7.75;6.93;;;21.20;75.80;;;19.81;100.00;95879.03;4968761;28;20066;-61
2022/06/29 07:48:58;;;;;;;9.50;8.43;;;21.30;75.50;;;19.82;100.00;95881.44;4947481;28;20557;-78
2022/06/29 07:51:24;;;;;;;23.55;17.17;;;21.30;75.40;;;19.85;100.00;95874.78;4947178;28;20035;-77
2022/06/29 07:53:50;;;;;;;9.73;8.20;;;21.30;75.70;;;19.84;100.00;95870.53;4948293;28;20032;-71
2022/06/29 07:56:15;;;;;;;9.45;7.07;;;21.20;74.60;;;19.83;99.74;95868.91;4947761;28;20031;-68
2022/06/29 07:58:41;;;;;;;8.80;7.53;;;21.30;74.80;;;19.83;100.00;95860.91;4950143;28;20040;-71
2022/06/29 08:01:07;;;;;;;7.90;7.10;;;21.30;75.70;;;19.85;100.00;95858.78;4932219;28;20160;-71
2022/06/29 08:03:33;;;;;;;9.85;7.35;;;21.30;76.10;;;19.88;100.00;95859.06;4951148;28;20043;-78
2022/06/29 08:05:59;;;;;;;12.52;7.13;;;21.40;75.70;;;19.93;100.00;95858.34;4949242;28;20085;-78
2022/06/29 08:08:25;;;;;;;9.93;7.10;;;21.50;75.30;;;19.97;100.00;95850.63;4946659;28;20475;-70
2022/06/29 08:10:51;;;;;;;9.50;7.45;;;21.60;74.90;;;20.00;100.00;95850.91;4929869;28;20043;-70
2022/06/29 08:13:17;;;;;;;10.88;6.75;;;21.60;74.90;;;20.06;100.00;95841.06;4952499;28;20041;-71
2022/06/29 08:15:45;;;;;;;7.65;6.85;;;21.70;75.10;;;20.12;100.00;95834.72;4932005;28;20126;-74
2022/06/29 08:18:15;;;;;;;11.13;7.72;;;21.80;73.80;;;20.18;99.84;95837.19;4950637;28;20066;-74
2022/06/29 08:20:40;;;;;;;8.90;7.43;;;21.80;73.40;;;20.22;99.95;95836.66;4938154;28;20123;-76
2022/06/29 08:23:06;;;;;;;8.63;7.65;;;22.00;73.60;;;20.30;99.33;95838.84;4952946;28;20045;-70
2022/06/29 08:25:32;;;;;;;24.85;20.35;;;22.10;72.90;;;20.37;99.99;95836.78;4959858;28;20487;-76
2022/06/29 08:27:58;;;;;;;13.18;11.80;;;22.10;73.40;;;20.44;99.42;95840.06;4945754;28;20157;-71
2022/06/29 08:30:24;;;;;;;8.02;6.82;;;22.20;73.20;;;20.52;98.72;95842.25;4952571;28;20043;-74
2022/06/29 08:32:50;;;;;;;8.70;6.63;;;22.20;73.00;;;20.58;98.89;95843.88;4941864;28;20141;-72
2022/06/29 08:35:16;;;;;;;9.30;6.38;;;22.30;73.20;;;20.66;99.04;95843.41;4934778;28;20054;-72
2022/06/29 08:37:43;;;;;;;7.47;5.80;;;22.40;73.30;;;20.71;98.60;95851.44;4934731;28;20038;-76
2022/06/29 08:40:11;;;;;;;8.10;5.32;;;22.50;72.70;;;20.79;97.81;95845.59;4968151;28;20035;-76
2022/06/29 08:42:37;;;;;;;7.65;6.20;;;22.60;72.40;;;20.88;97.58;95856.63;4936228;28;20036;-72
2022/06/29 08:45:05;;;;;;;7.80;6.20;;;22.70;71.80;;;20.99;97.23;95852.13;4949170;28;20054;-72
2022/06/29 08:47:30;;;;;;;8.15;5.88;;;22.90;71.00;;;21.06;96.07;95852.72;4951424;28;20046;-72
2022/06/29 08:49:56;;;;;;;9.20;6.80;;;23.00;70.00;;;21.15;95.64;95850.34;4933244;28;20047;-71
2022/06/29 08:52:24;;;;;;;10.98;5.65;;;23.00;69.80;;;21.25;95.41;95851.19;4950076;28;20035;-71
2022/06/29 08:54:50;;;;;;;7.78;5.85;;;23.10;69.90;;;21.35;94.33;95861.16;4946205;28;20117;-71
2022/06/29 08:57:16;;;;;;;6.47;5.43;;;23.30;69.10;;;21.49;94.45;95856.88;4934990;28;20035;-71
2022/06/29 08:59:41;;;;;;;7.95;5.50;;;23.60;69.30;;;21.64;95.09;95859.63;4944647;28;20043;-70
2022/06/29 09:02:07;;;;;;;8.20;5.35;;;23.70;69.40;;;21.79;93.85;95856.16;4966229;28;20055;-70
2022/06/29 09:04:33;;;;;;;6.90;5.35;;;23.90;68.10;;;21.94;93.98;95852.69;4934821;28;20531;-70
2022/06/29 09:06:59;;;;;;;8.20;5.55;;;24.10;68.10;;;22.06;92.45;95844.44;4948482;28;20084;-70
2022/06/29 09:09:25;;;;;;;11.40;9.35;;;24.10;67.30;;;22.14;91.80;95851.94;4968306;28;20399;-71
2022/06/29 09:11:51;;;;;;;7.82;6.10;;;24.10;67.80;;;22.19;91.47;95841.25;4937362;28;20201;-70
2022/06/29 09:14:21;;;;;;;6.90;5.70;;;24.10;66.90;;;22.24;90.55;95834.00;4961104;28;20034;-71
2022/06/29 09:16:49;;;;;;;10.07;5.75;;;24.10;67.30;;;22.30;90.16;95846.31;4965718;28;20085;-74
2022/06/29 09:19:18;;;;;;;7.85;5.35;;;24.20;66.70;;;22.38;90.13;95844.16;4966732;28;20031;-71
2022/06/29 09:21:56;;;;;;;7.78;5.20;;;24.40;66.80;;;22.51;88.69;95841.75;4963728;28;20027;-70
2022/06/29 09:24:28;;;;;;;5.40;4.80;;;24.70;65.90;;;22.69;88.37;95852.97;4946088;28;20148;-70
2022/06/29 09:26:58;;;;;;;7.85;5.15;;;24.90;64.90;;;22.77;87.77;95855.09;4963481;28;20031;-71
2022/06/29 09:29:29;;;;;;;5.85;5.03;;;24.90;64.00;;;22.86;85.63;95853.50;4950383;28;20030;-72
2022/06/29 09:32:18;;;;;;;7.05;5.15;;;24.90;63.50;;;22.93;84.41;95856.69;4950617;28;20809;-71
2022/06/29 09:34:47;;;;;;;6.88;5.85;;;25.00;63.80;;;22.99;83.80;95849.44;4933614;28;20031;-74
2022/06/29 09:37:20;;;;;;;8.25;5.18;;;25.00;62.10;;;23.10;84.62;95842.97;4979500;28;20039;-70
2022/06/29 09:39:51;;;;;;;6.72;5.00;;;25.20;63.80;;;23.23;85.05;95845.84;4960316;28;20038;-72
2022/06/29 09:42:22;;;;;;;6.93;4.80;;;25.40;63.40;;;23.34;84.20;95846.63;4934833;28;20074;-71
2022/06/29 09:44:48;;;;;;;6.63;5.30;;;25.50;62.80;;;23.43;84.17;95847.63;4946158;28;20027;-76
2022/06/29 09:47:16;;;;;;;7.43;4.88;;;25.60;61.50;;;23.61;83.90;95842.75;4962653;28;20545;-72
2022/06/29 09:49:43;;;;;;;5.95;4.70;;;26.00;61.30;;;23.87;83.32;95830.75;4964328;28;20502;-72
2022/06/29 09:52:09;;;;;;;7.18;6.00;;;26.60;60.50;;;24.20;81.41;95829.16;4949834;28;20031;-72
2022/06/29 09:54:55;;;;;;;12.20;4.70;;;26.90;56.60;;;24.39;77.06;95830.09;4950709;28;20046;-71
2022/06/29 09:57:28;;;;;;;5.25;4.20;;;27.10;57.00;;;24.65;78.27;95835.22;4966344;28;20038;-73
2022/06/29 10:02:53;;;;;;;6.55;5.38;;;28.20;54.60;;;25.58;78.83;95831.22;4946375;28;20061;-67
2022/06/29 10:05:28;;;;;;;6.60;4.55;;;29.60;51.30;;;26.12;74.77;95825.31;4934343;28;20104;-67
2022/06/29 10:07:54;;;;;;;8.52;5.15;;;30.40;49.90;;;26.76;75.86;95826.38;4942823;28;20388;-66
2022/06/29 10:10:23;;;;;;;5.93;4.90;;;31.30;45.90;;;27.10;72.45;95825.22;4948531;28;20118;-66
2022/06/29 10:16:33;;;;;;;5.75;4.10;;;30.70;46.70;;;27.42;65.07;95832.41;4959308;28;20054;-65
2022/06/29 10:19:42;;;;;;;5.50;3.78;;;30.10;47.20;;;27.33;65.36;95831.50;4961497;28;20055;-66
2022/06/29 10:22:07;;;;;;;4.65;4.00;;;29.80;49.30;;;27.23;69.55;95832.53;4935985;28;20042;-67